createdAt,value
2019-02-06T00:03:06.407Z,18.48
2019-02-06T00:08:12.381Z,19.23
2019-02-06T00:13:17.599Z,26.87
2019-02-06T00:18:23.403Z,16.52
2019-02-06T00:23:29.206Z,17.10
2019-02-06T00:28:34.890Z,15.20
2019-02-06T00:33:40.402Z,15.23
2019-02-06T00:38:45.808Z,15.67
2019-02-06T00:43:51.173Z,15.63
2019-02-06T00:48:56.752Z,15.40
2019-02-06T00:54:01.998Z,15.67
2019-02-06T00:59:08.202Z,14.33
2019-02-06T01:04:13.735Z,15.55
2019-02-06T01:09:19.404Z,14.90
2019-02-06T01:14:24.860Z,14.57
2019-02-06T01:19:30.099Z,15.13
2019-02-06T01:24:35.437Z,13.40
2019-02-06T01:29:41.057Z,13.93
2019-02-06T01:34:46.713Z,13.00
2019-02-06T01:39:51.966Z,13.70
2019-02-06T01:44:57.241Z,12.73
2019-02-06T01:50:02.583Z,11.47
2019-02-06T01:55:13.579Z,11.23
2019-02-06T02:00:21.345Z,12.50
2019-02-06T02:05:27.447Z,11.83
2019-02-06T02:10:33.029Z,12.30
2019-02-06T02:15:38.801Z,10.50
2019-02-06T02:20:44.360Z,11.50
2019-02-06T02:25:50.032Z,10.17
2019-02-06T02:30:55.957Z,10.00
2019-02-06T02:36:14.295Z,9.90
2019-02-06T02:41:08.365Z,8.13
2019-02-06T02:46:13.916Z,8.45
2019-02-06T02:51:19.597Z,7.87
2019-02-06T02:56:25.109Z,7.87
2019-02-06T03:01:36.222Z,7.63
2019-02-06T03:06:43.447Z,8.03
2019-02-06T03:11:50.005Z,7.97
2019-02-06T03:16:55.589Z,6.43
2019-02-06T03:22:00.947Z,6.63
2019-02-06T03:27:06.165Z,6.60
2019-02-06T03:32:11.412Z,6.12
2019-02-06T03:37:16.559Z,6.90
2019-02-06T03:42:22.141Z,5.70
2019-02-06T03:47:27.645Z,6.37
2019-02-06T03:52:33.523Z,5.77
2019-02-06T03:57:39.693Z,5.72
2019-02-06T04:02:45.050Z,4.70
2019-02-06T04:07:50.233Z,4.77
2019-02-06T04:12:55.904Z,3.97
2019-02-06T04:18:01.280Z,4.57
2019-02-06T04:23:06.692Z,3.93
2019-02-06T04:28:12.562Z,3.70
2019-02-06T04:33:17.932Z,4.17
2019-02-06T04:38:23.582Z,4.50
2019-02-06T04:43:29.234Z,3.40
2019-02-06T04:48:34.614Z,4.15
2019-02-06T04:53:40.283Z,3.60
2019-02-06T04:58:45.833Z,3.73
2019-02-06T05:03:52.342Z,3.90
2019-02-06T05:08:57.773Z,4.10
2019-02-06T05:14:03.179Z,4.17
2019-02-06T05:19:08.625Z,3.30
2019-02-06T05:24:14.167Z,3.67
2019-02-06T05:29:19.629Z,3.60
2019-02-06T05:34:24.890Z,3.50
2019-02-06T05:39:30.246Z,3.23
2019-02-06T05:44:35.399Z,3.70
2019-02-06T05:49:40.784Z,3.27
2019-02-06T05:54:46.319Z,3.17
2019-02-06T05:59:51.564Z,3.43
2019-02-06T06:04:57.081Z,4.23
2019-02-06T06:10:02.400Z,4.03
2019-02-06T06:15:09.418Z,3.37
2019-02-06T06:20:17.516Z,3.67
2019-02-06T06:25:22.878Z,3.65
2019-02-06T06:30:28.058Z,3.63
2019-02-06T06:35:33.762Z,4.10
2019-02-06T06:40:39.293Z,3.90
2019-02-06T06:45:44.667Z,3.50
2019-02-06T06:50:50.186Z,3.37
2019-02-06T06:55:55.850Z,4.00
2019-02-06T07:01:01.319Z,5.73
2019-02-06T07:06:07.083Z,6.85
2019-02-06T07:11:12.545Z,6.10
2019-02-06T07:16:17.797Z,7.57
2019-02-06T07:21:23.140Z,8.23
2019-02-06T07:26:28.730Z,5.40
2019-02-06T07:31:34.752Z,7.03
2019-02-06T07:36:40.138Z,5.63
2019-02-06T07:41:45.930Z,11.33
2019-02-06T07:46:51.585Z,7.43
2019-02-06T07:51:56.846Z,12.27
2019-02-06T07:57:02.730Z,7.40
2019-02-06T08:02:08.277Z,6.43
2019-02-06T08:07:13.636Z,5.75
2019-02-06T08:12:19.826Z,4.27
2019-02-06T08:17:25.727Z,5.20
2019-02-06T08:22:31.192Z,5.73
2019-02-06T08:27:36.572Z,9.10
2019-02-06T08:32:41.760Z,15.03
2019-02-06T08:37:47.432Z,8.23
2019-02-06T08:42:52.993Z,9.47
2019-02-06T08:47:58.371Z,5.60
2019-02-06T08:53:04.735Z,6.55
2019-02-06T08:58:10.100Z,6.90
2019-02-06T09:03:15.765Z,27.03
2019-02-06T09:08:21.490Z,13.65
2019-02-06T09:13:26.892Z,13.87
2019-02-06T09:18:32.354Z,6.47
2019-02-06T09:23:37.818Z,4.73
2019-02-06T09:28:43.473Z,8.90
2019-02-06T09:33:48.840Z,4.77
2019-02-06T09:38:54.086Z,16.57
2019-02-06T09:43:59.340Z,7.10
2019-02-06T09:49:05.016Z,5.47
2019-02-06T09:54:11.210Z,4.87
2019-02-06T09:59:16.554Z,5.67
2019-02-06T10:04:21.910Z,9.53
2019-02-06T10:09:27.307Z,7.80
2019-02-06T10:14:32.825Z,6.47
2019-02-06T10:19:38.372Z,5.63
2019-02-06T10:24:43.858Z,7.40
2019-02-06T10:29:49.627Z,7.57
2019-02-06T10:34:55.299Z,5.57
2019-02-06T10:40:00.684Z,6.93
2019-02-06T10:45:09.133Z,6.53
2019-02-06T10:50:27.444Z,5.23
2019-02-06T10:55:32.913Z,11.60
2019-02-06T11:00:47.262Z,8.37
2019-02-06T11:05:52.723Z,7.67
2019-02-06T11:10:58.196Z,5.70
2019-02-06T11:16:03.762Z,9.47
2019-02-06T11:21:09.039Z,4.40
2019-02-06T11:26:14.989Z,5.22
2019-02-06T11:31:22.085Z,4.15
2019-02-06T11:36:28.061Z,4.07
2019-02-06T11:41:34.763Z,4.20
2019-02-06T11:46:40.463Z,7.23
2019-02-06T11:51:46.101Z,3.77
2019-02-06T11:56:51.334Z,6.33
2019-02-06T12:01:56.832Z,6.10
2019-02-06T12:07:02.359Z,14.57
2019-02-06T12:12:07.930Z,5.70
2019-02-06T12:17:13.394Z,6.10
2019-02-06T12:22:20.118Z,6.05
2019-02-06T12:27:25.444Z,6.53
2019-02-06T12:32:31.008Z,34.03
2019-02-06T12:37:36.970Z,6.07
2019-02-06T12:42:42.638Z,11.23
2019-02-06T12:47:48.106Z,6.43
2019-02-06T12:52:57.091Z,6.57
2019-02-06T12:58:01.293Z,5.53
2019-02-06T13:03:06.900Z,11.33
2019-02-06T13:08:12.516Z,8.58
2019-02-06T13:13:18.698Z,18.90
2019-02-06T13:18:24.515Z,12.50
2019-02-06T13:23:30.435Z,13.60
2019-02-06T13:28:35.967Z,9.40
2019-02-06T13:33:41.247Z,11.17
2019-02-06T13:38:46.601Z,15.63
2019-02-06T13:43:51.967Z,11.93
2019-02-06T13:48:57.522Z,10.33
2019-02-06T13:54:03.319Z,8.58
2019-02-06T13:59:08.757Z,10.17
2019-02-06T14:04:14.119Z,10.65
2019-02-06T14:09:22.828Z,9.23
2019-02-06T14:14:27.183Z,8.83
2019-02-06T14:19:32.664Z,11.13
2019-02-06T14:24:40.983Z,19.00
2019-02-06T14:30:20.768Z,18.67
2019-02-06T14:35:32.195Z,10.47
2019-02-06T14:40:49.503Z,10.73
2019-02-06T14:46:09.452Z,20.10
2019-02-06T14:51:24.127Z,14.90
2019-02-06T14:56:38.415Z,11.13
2019-02-06T15:01:52.589Z,11.30
2019-02-06T15:07:03.446Z,15.03
2019-02-06T15:12:37.625Z,18.17
2019-02-06T15:17:51.469Z,38.63
2019-02-06T15:23:12.109Z,30.80
2019-02-06T15:28:30.228Z,29.63
2019-02-06T15:33:41.968Z,15.90
2019-02-06T15:38:52.927Z,17.07
2019-02-06T15:44:13.686Z,17.27
2019-02-06T15:49:31.104Z,19.70
2019-02-06T15:54:56.542Z,28.73
2019-02-06T16:00:27.434Z,21.77
2019-02-06T16:06:01.599Z,17.15
2019-02-06T16:11:19.188Z,18.70
2019-02-06T16:16:45.630Z,22.07
2019-02-06T16:22:00.969Z,25.40
2019-02-06T16:27:15.234Z,29.33
2019-02-06T16:32:46.321Z,33.67
2019-02-06T16:38:04.107Z,31.30
2019-02-06T16:43:32.190Z,30.23
2019-02-06T16:48:46.455Z,31.63
2019-02-06T16:53:57.344Z,45.47
2019-02-06T16:59:30.265Z,39.93
2019-02-06T17:04:50.743Z,35.83
2019-02-06T17:10:22.148Z,29.57
2019-02-06T17:15:47.179Z,34.90
2019-02-06T17:21:01.354Z,28.57
2019-02-06T17:26:15.958Z,30.53
2019-02-06T17:31:43.943Z,30.12
2019-02-06T17:36:54.766Z,29.40
2019-02-06T17:42:16.121Z,64.10
2019-02-06T17:47:42.796Z,36.15
2019-02-06T17:52:59.366Z,30.13
2019-02-06T17:58:06.700Z,27.10
2019-02-06T18:03:15.084Z,28.00
2019-02-06T18:08:20.782Z,34.87
2019-02-06T18:13:26.370Z,24.07
2019-02-06T18:18:32.134Z,21.00
2019-02-06T18:23:37.535Z,24.67
2019-02-06T18:28:43.472Z,22.60
2019-02-06T18:33:49.131Z,20.87
2019-02-06T18:38:54.482Z,23.37
2019-02-06T18:44:00.048Z,19.87
2019-02-06T18:49:06.121Z,22.70
2019-02-06T18:54:11.586Z,20.60
2019-02-06T18:59:16.839Z,21.43
2019-02-06T19:04:22.068Z,19.07
2019-02-06T19:09:28.966Z,19.30
2019-02-06T19:14:34.299Z,25.37
2019-02-06T19:19:39.899Z,24.57
2019-02-06T19:24:45.086Z,21.07
2019-02-06T19:29:51.430Z,21.07
2019-02-06T19:34:56.794Z,22.30
2019-02-06T19:40:02.310Z,17.02
2019-02-06T19:45:13.146Z,19.80
2019-02-06T19:50:27.531Z,17.27
2019-02-06T19:55:32.779Z,20.97
2019-02-06T20:00:38.570Z,19.27
2019-02-06T20:05:44.626Z,17.73
2019-02-06T20:10:52.150Z,19.90
2019-02-06T20:15:57.947Z,20.20
2019-02-06T20:21:03.259Z,19.10
2019-02-06T20:26:09.031Z,19.83
2019-02-06T20:31:14.691Z,19.23
2019-02-06T20:36:20.046Z,22.58
2019-02-06T20:41:25.270Z,21.97
2019-02-06T20:46:30.639Z,21.80
2019-02-06T20:51:37.161Z,20.30
2019-02-06T20:56:42.710Z,25.87
2019-02-06T21:01:47.966Z,22.07
2019-02-06T21:06:53.321Z,26.43
2019-02-06T21:11:58.470Z,23.60
2019-02-06T21:17:04.659Z,24.12
2019-02-06T21:22:10.512Z,23.83
2019-02-06T21:27:17.212Z,24.30
2019-02-06T21:32:22.328Z,25.70
2019-02-06T21:37:27.462Z,24.37
2019-02-06T21:42:32.647Z,26.03
2019-02-06T21:47:38.195Z,24.07
2019-02-06T21:52:44.856Z,27.75
2019-02-06T21:57:51.376Z,27.40
2019-02-06T22:02:57.065Z,26.57
2019-02-06T22:08:02.387Z,27.57
2019-02-06T22:13:07.584Z,34.63
2019-02-06T22:18:12.849Z,28.70
2019-02-06T22:23:18.420Z,27.65
2019-02-06T22:28:23.882Z,46.93
2019-02-06T22:33:29.238Z,32.50
2019-02-06T22:38:34.911Z,30.53
2019-02-06T22:43:40.478Z,27.00
2019-02-06T22:48:45.912Z,38.67
2019-02-06T22:53:51.193Z,38.37
2019-02-06T22:58:56.710Z,36.77
2019-02-06T23:04:02.306Z,28.60
2019-02-06T23:09:08.359Z,35.58
2019-02-06T23:14:17.446Z,28.60
2019-02-06T23:19:20.721Z,27.62
2019-02-06T23:24:26.418Z,26.60
2019-02-06T23:29:32.105Z,26.50
2019-02-06T23:34:37.899Z,27.60
2019-02-06T23:39:43.493Z,28.90
2019-02-06T23:44:48.586Z,35.92
2019-02-06T23:49:53.763Z,29.27
2019-02-06T23:54:58.967Z,28.87
